Aviation Digital Data Service (ADDS)

Output produced by METARs form (0641 UTC 24 March 2019)
found at http://www.aviationweather.gov/metar/data/
 
SECU 240200Z 25003KT 9999 BKN030 15/13 Q1027
SEGU 240600Z 25005KT 210V300 9999 FEW010 SCT023 BKN100 26/22 Q1012 NOSIG RMK A2989
SEGU 240325Z 2406/2506 24006KT 9999 FEW010 BKN020 BKN090 
     TEMPO 2408/2410 6000 RA 
     FM241700 16006KT 9999 SCT030 SCT100 
     BECMG 2418/2420 06006KT BKN030 BKN100 
     TEMPO 2422/2423 8000 RA 
     FM250100 27006KT 9999 BKN030 BKN090 
     TEMPO 2503/2505 6000 RA TX31/2420Z TN25/2410Z
       
SELT 240600Z 14002KT 9999 BKN010 OVC100 10/09 Q1033
SELT 240520Z 2406/2506 00000KT 9999 BKN010 OVC100 
     FM241400 16005KT 9999 SCT030 BKN100 
     FM241900 18014KT 9999 BKN026 SCT100 
     FM150000 VRB03KT 9999 SCT010 BKN026 TX19/2419Z TN07/2411Z
       
SEMT 240600Z 20005KT 9999 BKN020 SCT100 26/23 Q1013 RMK A2993
SEMT 240520Z 2406/2506 20004KT 9999 BKN020 
     FM241500 30006KT 9999 SCT023 
     FM242300 22004KT 9999 BKN020 TX31/2420Z TN25/2410Z
       
SEQM 240600Z 17002KT 9999 5000N BCFG FEW003 SCT100 13/12 Q1028 NOSIG RMK A3038
SEQM 240520Z 2406/2506 00000KT 9999 FEW006 BKN100 
     FM241300 VRB03KT 9999 SCT030 SCT090 
     BECMG 2417/2419 02015KT 
     TEMPO 2420/2422 TSRA FEW026CB SCT030 BKN090 
     BECMG 2422/2424 02005KT 
     BECMG 2502/2504 SCT006 BKN020 TX24/2419Z TN12/2411Z
       
SESA 240300Z 22008KT 9999 FEW040 SCT080 26/22 Q1013